SWR17 LSZH-EDLW
Flight info
| Callsign | SWR17 |
|---|---|
| Flight time | N/A |
| Altitude | 34000 |
| Route | DEGES Z1 ETAGO/N0352F220 Z3 ABUMO N850 GISEM Z505 ARPEG Z850 ADEMI ADEMI2A |
| Aircraft | A20N/M-SDE2E3FGHIRWXY/LB1 |
Departure
| Time | 2026-05-01 10:51 |
|---|---|
| Airport | Zürich Airport (LSZH) |
Arrival
| Time | N/A |
|---|---|
| Airport | Dortmund Airport (EDLW) |
| Time | Latitude | Longitude | Altitude | Speed | Heading |
|---|---|---|---|---|---|
| 2026-05-01 10:29 | 47.45413 | 8.56002 | 1404 ft | 0 kts | 186° |
| 2026-05-01 10:41 | 47.45420 | 8.56003 | 1411 ft | 2 kts | 186° |
| 2026-05-01 10:41 | 47.45449 | 8.56007 | 1404 ft | 2 kts | 186° |
| 2026-05-01 10:42 | 47.45464 | 8.56010 | 1406 ft | 2 kts | 177° |
| 2026-05-01 10:42 | 47.45479 | 8.56005 | 1403 ft | 2 kts | 149° |
| 2026-05-01 10:42 | 47.45490 | 8.55992 | 1401 ft | 2 kts | 118° |
| 2026-05-01 10:42 | 47.45494 | 8.55978 | 1404 ft | 0 kts | 98° |
| 2026-05-01 10:45 | 47.45494 | 8.55981 | 1405 ft | 1 kts | 98° |
| 2026-05-01 10:45 | 47.45492 | 8.56000 | 1402 ft | 5 kts | 98° |
| 2026-05-01 10:45 | 47.45483 | 8.56092 | 1396 ft | 13 kts | 97° |
| 2026-05-01 10:45 | 47.45490 | 8.56236 | 1404 ft | 16 kts | 56° |
| 2026-05-01 10:46 | 47.45562 | 8.56370 | 1396 ft | 17 kts | 51° |
| 2026-05-01 10:46 | 47.45591 | 8.56518 | 1398 ft | 16 kts | 95° |
| 2026-05-01 10:46 | 47.45578 | 8.56692 | 1397 ft | 18 kts | 95° |
| 2026-05-01 10:46 | 47.45566 | 8.56869 | 1397 ft | 13 kts | 96° |
| 2026-05-01 10:47 | 47.45561 | 8.56959 | 1397 ft | 7 kts | 85° |
| 2026-05-01 10:47 | 47.45571 | 8.56991 | 1398 ft | 0 kts | 54° |
| 2026-05-01 10:49 | 47.45590 | 8.57012 | 1402 ft | 8 kts | 28° |
| 2026-05-01 10:49 | 47.45648 | 8.57027 | 1397 ft | 6 kts | 347° |
| 2026-05-01 10:50 | 47.45664 | 8.56971 | 1405 ft | 1 kts | 278° |
| 2026-05-01 10:50 | 47.45664 | 8.56970 | 1404 ft | 0 kts | 276° |
| 2026-05-01 10:50 | 47.45664 | 8.56967 | 1404 ft | 2 kts | 276° |
| 2026-05-01 10:50 | 47.45686 | 8.56665 | 1396 ft | 66 kts | 276° |
| 2026-05-01 10:51 | 47.45757 | 8.55656 | 1396 ft | 129 kts | 276° |
| 2026-05-01 10:51 | 47.45862 | 8.54103 | 1502 ft | 165 kts | 277° |
| 2026-05-01 10:51 | 47.45987 | 8.52444 | 2179 ft | 162 kts | 279° |
| 2026-05-01 10:51 | 47.46134 | 8.50759 | 2878 ft | 166 kts | 278° |
| 2026-05-01 10:52 | 47.46258 | 8.49029 | 3415 ft | 177 kts | 276° |
| 2026-05-01 10:52 | 47.46252 | 8.47163 | 3845 ft | 189 kts | 250° |
| 2026-05-01 10:52 | 47.45401 | 8.45661 | 4383 ft | 201 kts | 210° |
| 2026-05-01 10:52 | 47.44009 | 8.45166 | 4923 ft | 222 kts | 177° |
| 2026-05-01 10:53 | 47.42491 | 8.45935 | 5530 ft | 244 kts | 145° |
| 2026-05-01 10:53 | 47.41358 | 8.47869 | 6226 ft | 260 kts | 116° |
| 2026-05-01 10:53 | 47.40982 | 8.50518 | 6958 ft | 274 kts | 87° |
| 2026-05-01 10:53 | 47.41418 | 8.53286 | 7803 ft | 278 kts | 72° |
| 2026-05-01 10:54 | 47.42028 | 8.55994 | 8872 ft | 277 kts | 75° |
| 2026-05-01 10:54 | 47.42535 | 8.58749 | 9890 ft | 280 kts | 79° |
| 2026-05-01 10:54 | 47.43101 | 8.61519 | 10713 ft | 289 kts | 64° |
| 2026-05-01 10:54 | 47.44428 | 8.63881 | 11111 ft | 314 kts | 42° |
| 2026-05-01 10:55 | 47.46224 | 8.65915 | 11473 ft | 335 kts | 38° |
| 2026-05-01 10:55 | 47.48148 | 8.67939 | 12228 ft | 341 kts | 38° |
| 2026-05-01 10:55 | 47.50078 | 8.69991 | 13073 ft | 344 kts | 39° |
| 2026-05-01 10:55 | 47.52014 | 8.72108 | 13931 ft | 347 kts | 40° |
| 2026-05-01 10:56 | 47.53956 | 8.74277 | 14687 ft | 352 kts | 40° |
| 2026-05-01 10:56 | 47.55912 | 8.76486 | 15397 ft | 355 kts | 40° |
| 2026-05-01 10:56 | 47.57886 | 8.78725 | 16117 ft | 359 kts | 40° |
| 2026-05-01 10:56 | 47.59881 | 8.80992 | 16821 ft | 364 kts | 40° |
| 2026-05-01 10:57 | 47.61872 | 8.83253 | 17574 ft | 365 kts | 40° |
| 2026-05-01 10:57 | 47.63896 | 8.85552 | 18324 ft | 369 kts | 40° |
| 2026-05-01 10:57 | 47.65947 | 8.87886 | 18948 ft | 373 kts | 40° |
| 2026-05-01 10:57 | 47.68014 | 8.90237 | 19572 ft | 375 kts | 40° |
| 2026-05-01 10:58 | 47.70094 | 8.92605 | 20184 ft | 378 kts | 39° |
| 2026-05-01 10:58 | 47.72199 | 8.95002 | 20801 ft | 381 kts | 39° |
| 2026-05-01 10:58 | 47.74310 | 8.97407 | 21408 ft | 384 kts | 39° |
| 2026-05-01 10:58 | 47.76437 | 8.99835 | 22018 ft | 387 kts | 39° |
| 2026-05-01 10:59 | 47.78565 | 9.02265 | 22605 ft | 390 kts | 39° |
| 2026-05-01 10:59 | 47.80727 | 9.04736 | 23194 ft | 393 kts | 39° |
| 2026-05-01 10:59 | 47.82905 | 9.07227 | 23768 ft | 397 kts | 39° |
| 2026-05-01 10:59 | 47.85099 | 9.09738 | 24275 ft | 399 kts | 39° |
| 2026-05-01 11:00 | 47.87313 | 9.12275 | 24770 ft | 401 kts | 39° |
| 2026-05-01 11:00 | 47.89534 | 9.14823 | 25252 ft | 404 kts | 39° |
| 2026-05-01 11:00 | 47.91736 | 9.17351 | 25717 ft | 406 kts | 39° |
| 2026-05-01 11:00 | 47.94011 | 9.19967 | 26186 ft | 409 kts | 39° |
| 2026-05-01 11:01 | 47.96240 | 9.22532 | 26637 ft | 411 kts | 39° |
| 2026-05-01 11:01 | 47.98515 | 9.25152 | 27061 ft | 414 kts | 39° |
| 2026-05-01 11:01 | 48.00802 | 9.27789 | 27496 ft | 416 kts | 39° |
| 2026-05-01 11:01 | 48.03104 | 9.30447 | 27906 ft | 418 kts | 39° |
| 2026-05-01 11:02 | 48.05412 | 9.33113 | 28316 ft | 420 kts | 39° |
| 2026-05-01 11:02 | 48.07731 | 9.35796 | 28725 ft | 422 kts | 39° |
| 2026-05-01 11:02 | 48.10026 | 9.38456 | 29085 ft | 425 kts | 39° |
| 2026-05-01 11:02 | 48.12373 | 9.41176 | 29433 ft | 427 kts | 39° |
| 2026-05-01 11:03 | 48.14833 | 9.43667 | 29837 ft | 428 kts | 29° |
| 2026-05-01 11:03 | 48.17591 | 9.45351 | 30195 ft | 430 kts | 18° |
| 2026-05-01 11:03 | 48.20538 | 9.46133 | 30510 ft | 433 kts | 6° |
| 2026-05-01 11:03 | 48.23564 | 9.46183 | 30823 ft | 435 kts | 3° |
| 2026-05-01 11:04 | 48.26601 | 9.46183 | 31100 ft | 438 kts | 3° |
| 2026-05-01 11:04 | 48.29658 | 9.46188 | 31257 ft | 443 kts | 3° |
| 2026-05-01 11:04 | 48.32743 | 9.46190 | 31590 ft | 443 kts | 2° |
| 2026-05-01 11:04 | 48.35808 | 9.46191 | 32002 ft | 442 kts | 2° |
| 2026-05-01 11:05 | 48.38879 | 9.46192 | 32400 ft | 441 kts | 3° |
| 2026-05-01 11:05 | 48.41948 | 9.46194 | 32783 ft | 440 kts | 3° |
| 2026-05-01 11:05 | 48.45005 | 9.46196 | 33166 ft | 439 kts | 3° |
| 2026-05-01 11:05 | 48.48059 | 9.46198 | 33534 ft | 438 kts | 3° |
| 2026-05-01 11:06 | 48.51107 | 9.46201 | 33899 ft | 437 kts | 3° |
| 2026-05-01 11:06 | 48.54151 | 9.46202 | 34243 ft | 437 kts | 2° |
| 2026-05-01 11:06 | 48.57177 | 9.46179 | 34330 ft | 435 kts | 2° |
| 2026-05-01 11:07 | 48.66248 | 9.46058 | 34328 ft | 434 kts | 2° |
| 2026-05-01 11:07 | 48.72262 | 9.45293 | 34330 ft | 434 kts | 352° |
| 2026-05-01 11:08 | 48.78036 | 9.42560 | 34324 ft | 437 kts | 340° |
| 2026-05-01 11:09 | 48.86423 | 9.37159 | 34321 ft | 436 kts | 340° |
| 2026-05-01 11:09 | 48.91760 | 9.32750 | 34316 ft | 438 kts | 329° |
| 2026-05-01 11:10 | 48.98735 | 9.23733 | 34321 ft | 439 kts | 322° |
| 2026-05-01 11:10 | 49.03242 | 9.17560 | 34318 ft | 439 kts | 321° |
| 2026-05-01 11:11 | 49.07770 | 9.11312 | 34326 ft | 439 kts | 322° |
| 2026-05-01 11:11 | 49.12292 | 9.05041 | 34311 ft | 440 kts | 321° |
| 2026-05-01 11:12 | 49.17017 | 8.99164 | 34322 ft | 437 kts | 334° |
| 2026-05-01 11:12 | 49.22692 | 8.96100 | 34333 ft | 433 kts | 355° |
| 2026-05-01 11:13 | 49.28694 | 8.96248 | 34332 ft | 433 kts | 8° |
| 2026-05-01 11:13 | 49.34698 | 8.97095 | 34338 ft | 435 kts | 7° |
| 2026-05-01 11:14 | 49.40707 | 8.97933 | 34339 ft | 431 kts | 7° |
| 2026-05-01 11:14 | 49.46700 | 8.98775 | 34342 ft | 432 kts | 7° |
| 2026-05-01 11:15 | 49.52683 | 8.99616 | 34340 ft | 434 kts | 7° |
| 2026-05-01 11:15 | 49.58668 | 9.00442 | 34345 ft | 434 kts | 7° |
| 2026-05-01 11:16 | 49.64715 | 9.01281 | 34343 ft | 436 kts | 7° |
| 2026-05-01 11:16 | 49.70764 | 9.02151 | 34343 ft | 435 kts | 7° |
| 2026-05-01 11:17 | 49.76811 | 9.03025 | 34347 ft | 437 kts | 7° |
| 2026-05-01 11:17 | 49.82853 | 9.03898 | 34352 ft | 437 kts | 7° |
| 2026-05-01 11:18 | 49.88888 | 9.04652 | 34355 ft | 433 kts | 2° |
| 2026-05-01 11:18 | 49.94841 | 9.03529 | 34360 ft | 434 kts | 348° |
| 2026-05-01 11:19 | 50.00543 | 9.00397 | 34364 ft | 436 kts | 342° |
| 2026-05-01 11:19 | 50.06224 | 8.97053 | 34363 ft | 435 kts | 342° |
| 2026-05-01 11:20 | 50.11880 | 8.93732 | 34368 ft | 436 kts | 344° |
| 2026-05-01 11:20 | 50.17777 | 8.91595 | 34367 ft | 433 kts | 355° |
| 2026-05-01 11:21 | 50.23748 | 8.90353 | 34371 ft | 437 kts | 354° |
| 2026-05-01 11:21 | 50.29753 | 8.89064 | 34322 ft | 433 kts | 354° |
| 2026-05-01 11:22 | 50.32241 | 8.88541 | 34101 ft | 436 kts | 354° |